Green Lake, Canada
Current Conditions -  °F | °C
As of 12:00 PM on Saturday 20 Dec 2014 (Local Time) from CYLJ Reporting Station
Light Snow Light Snow  
Wind Chill: 18°   Ceiling: 1000
Heat Index: 18°   Visibility: 1mi
Dew Point: 14°   Wind: 2mph
Humidity: 86%   Direction: 240°WSW
Pressure: 29.72"   Gusts: NA
Location:  54.27°N, 107.78°W
Report Text: CYLJ 201800Z 24002KT 1SM -SN OVC010 M08/M10 A2972 RMK SC8 SLP101
Loading
Personal Weather Stations






























Interactive Weather Map New forecast layout! Learn more

10-Day Weather Forecast

Advertisements
Track Severe Weather on mobile